Time;durP1;ratioP1;P1;durP2;ratioP2;P2;SDS_P1;SDS_P2;PMS_P1;PMS_P2;Temp;Humidity;BMP_temperature;BMP_pressure;BME280_temperature;BME280_humidity;BME280_pressure;Samples;Min_cycle;Max_cycle;Signal;HPM_P1;HPM_P2
2023/08/09 00:00:35;;;;;;;4.40;1.90;;;10.40;99.90;;;;;;5074947;28;20379;-26
2023/08/09 00:03:02;;;;;;;6.32;1.50;;;10.30;99.90;;;;;;5072577;28;20493;-26
2023/08/09 00:05:28;;;;;;;8.63;2.35;;;10.30;99.90;;;;;;5074083;28;20055;-26
2023/08/09 00:07:54;;;;;;;5.72;1.63;;;10.30;99.90;;;;;;5073735;28;20490;-25
2023/08/09 00:10:20;;;;;;;4.13;1.77;;;10.20;99.90;;;;;;5073997;28;20045;-25
2023/08/09 00:12:45;;;;;;;10.52;2.45;;;10.20;99.90;;;;;;5074376;28;20120;-26
2023/08/09 00:15:11;;;;;;;6.40;1.90;;;10.20;99.90;;;;;;5073974;28;20521;-26
2023/08/09 00:17:37;;;;;;;5.07;2.22;;;10.30;99.90;;;;;;5073302;28;20123;-25
2023/08/09 00:20:04;;;;;;;4.75;1.45;;;10.30;99.90;;;;;;5073954;28;20075;-26
2023/08/09 00:22:30;;;;;;;5.95;1.33;;;10.30;99.90;;;;;;5073776;28;20044;-25
2023/08/09 00:24:59;;;;;;;9.90;2.00;;;10.30;99.90;;;;;;5073842;28;20119;-26
2023/08/09 00:27:28;;;;;;;5.80;1.35;;;10.20;99.90;;;;;;5056906;28;20155;-26
2023/08/09 00:29:54;;;;;;;7.28;1.45;;;10.20;99.90;;;;;;5073449;28;20470;-26
2023/08/09 00:32:20;;;;;;;8.20;1.55;;;10.30;99.90;;;;;;5073758;28;20044;-25
2023/08/09 00:34:46;;;;;;;4.47;1.33;;;10.30;99.90;;;;;;5073763;28;20037;-26
2023/08/09 00:37:12;;;;;;;4.35;1.33;;;10.10;99.90;;;;;;5073347;28;20041;-26
2023/08/09 00:39:38;;;;;;;4.65;1.67;;;9.90;99.90;;;;;;5039444;28;20489;-25
2023/08/09 00:42:03;;;;;;;3.70;1.40;;;9.80;99.90;;;;;;5073034;28;20057;-24
2023/08/09 00:44:29;;;;;;;3.58;1.20;;;9.60;99.90;;;;;;5073616;28;20055;-25
2023/08/09 00:46:55;;;;;;;4.03;1.50;;;9.40;99.90;;;;;;5073657;28;20049;-25
2023/08/09 00:49:21;;;;;;;4.72;1.83;;;9.40;99.90;;;;;;5073572;28;20483;-25
2023/08/09 00:51:48;;;;;;;6.20;1.50;;;9.30;99.90;;;;;;5072031;28;20075;-25
2023/08/09 00:54:13;;;;;;;10.77;1.52;;;9.20;99.90;;;;;;5074058;28;20052;-25
2023/08/09 00:56:40;;;;;;;6.88;1.73;;;9.10;99.90;;;;;;5073499;28;20048;-25
2023/08/09 00:59:05;;;;;;;9.02;2.30;;;9.10;99.90;;;;;;5073494;28;20045;-25
2023/08/09 01:01:31;;;;;;;4.05;1.40;;;9.20;99.90;;;;;;5073374;28;20040;-25
2023/08/09 01:03:57;;;;;;;5.40;1.75;;;9.30;99.90;;;;;;5074269;28;20040;-25
2023/08/09 01:07:02;;;;;;;4.53;1.90;;;9.40;99.90;;;;;;5073385;28;20163;-25
2023/08/09 01:09:49;;;;;;;3.38;1.30;;;9.50;99.90;;;;;;5073004;28;20388;-25
2023/08/09 01:12:21;;;;;;;4.70;1.13;;;9.40;99.90;;;;;;5073355;28;20041;-25
2023/08/09 01:14:52;;;;;;;22.45;3.30;;;9.20;99.90;;;;;;5056042;28;20052;-25
2023/08/09 01:17:18;;;;;;;5.20;1.80;;;9.20;99.90;;;;;;5073899;28;20044;-25
2023/08/09 01:19:51;;;;;;;7.00;1.50;;;9.00;99.90;;;;;;5072290;28;20085;-26
2023/08/09 01:22:23;;;;;;;5.73;1.40;;;9.00;99.90;;;;;;5073241;28;20119;-25
2023/08/09 01:24:49;;;;;;;6.38;1.17;;;9.10;99.90;;;;;;5076218;28;20049;-25
2023/08/09 01:27:15;;;;;;;6.45;1.55;;;9.10;99.90;;;;;;5076156;28;20095;-25
2023/08/09 01:29:41;;;;;;;5.68;1.80;;;8.80;99.90;;;;;;5075702;28;20080;-25
2023/08/09 01:32:08;;;;;;;9.75;2.38;;;8.80;99.90;;;;;;5076954;28;20036;-25
2023/08/09 01:34:35;;;;;;;4.80;1.30;;;8.60;99.90;;;;;;5076890;28;20044;-24
2023/08/09 01:37:17;;;;;;;7.72;1.50;;;8.40;99.90;;;;;;5077167;28;20048;-26
2023/08/09 01:39:45;;;;;;;6.38;1.58;;;8.40;99.90;;;;;;5076854;28;20052;-25
2023/08/09 01:42:12;;;;;;;6.32;2.20;;;8.20;99.90;;;;;;5058542;28;20059;-24
2023/08/09 01:44:38;;;;;;;6.05;1.63;;;8.20;99.90;;;;;;5076747;28;20053;-25
2023/08/09 01:47:04;;;;;;;5.55;1.55;;;8.10;99.90;;;;;;5077493;28;20048;-26
2023/08/09 01:49:30;;;;;;;6.10;1.58;;;8.00;99.90;;;;;;5076691;28;20044;-24
2023/08/09 01:51:56;;;;;;;8.43;1.67;;;7.90;99.90;;;;;;5076308;28;20048;-24
2023/08/09 01:54:22;;;;;;;5.47;2.15;;;7.90;99.90;;;;;;5076577;28;20078;-25
2023/08/09 01:56:47;;;;;;;2.30;1.35;;;7.80;99.90;;;;;;5076513;28;20402;-25
2023/08/09 01:59:14;;;;;;;5.55;2.25;;;7.80;99.90;;;;;;5075300;28;20139;-25
2023/08/09 02:01:40;;;;;;;7.75;2.10;;;7.90;99.90;;;;;;5075173;28;20467;-25
2023/08/09 02:04:09;;;;;;;4.90;2.25;;;7.90;99.90;;;;;;5076414;28;20076;-25
2023/08/09 02:06:35;;;;;;;4.43;1.50;;;7.90;99.90;;;;;;5075733;28;20360;-25
2023/08/09 02:09:01;;;;;;;4.25;2.22;;;7.90;99.90;;;;;;5076262;28;20564;-25
2023/08/09 02:11:27;;;;;;;6.45;2.15;;;7.90;99.90;;;;;;5076308;28;20398;-25
2023/08/09 02:13:53;;;;;;;13.00;2.67;;;8.10;99.90;;;;;;5076824;28;20049;-25
2023/08/09 02:16:19;;;;;;;3.53;1.83;;;8.10;99.90;;;;;;5076143;28;20444;-25
2023/08/09 02:18:45;;;;;;;9.15;3.13;;;8.10;99.90;;;;;;5076108;28;20127;-25
2023/08/09 02:21:11;;;;;;;5.85;1.95;;;8.40;99.90;;;;;;5025209;28;20135;-25
2023/08/09 02:23:38;;;;;;;10.30;2.30;;;8.60;99.90;;;;;;5076222;28;20094;-25
2023/08/09 02:26:05;;;;;;;6.25;2.20;;;8.90;99.90;;;;;;5076010;28;20060;-24
2023/08/09 02:28:30;;;;;;;7.43;2.17;;;8.90;99.90;;;;;;5075986;28;20048;-25
2023/08/09 02:30:56;;;;;;;6.03;2.03;;;9.00;99.90;;;;;;5074758;28;20181;-25
2023/08/09 02:33:22;;;;;;;8.27;1.95;;;9.10;99.90;;;;;;5076085;28;20048;-25
2023/08/09 02:36:02;;;;;;;4.72;2.15;;;9.10;99.90;;;;;;5075476;28;20036;-26
2023/08/09 02:38:29;;;;;;;3.58;1.75;;;9.10;99.90;;;;;;5074835;28;20052;-25
2023/08/09 02:40:55;;;;;;;3.65;1.42;;;9.10;99.90;;;;;;5075045;28;20048;-25
2023/08/09 02:43:25;;;;;;;5.60;1.85;;;9.10;99.90;;;;;;5076757;28;20063;-25
2023/08/09 02:45:52;;;;;;;6.28;1.70;;;9.20;99.90;;;;;;5076228;28;20394;-25
2023/08/09 02:48:19;;;;;;;4.45;1.70;;;9.20;99.90;;;;;;5074897;28;20427;-26
2023/08/09 02:50:44;;;;;;;4.95;1.58;;;9.00;99.90;;;;;;5075507;28;20044;-26
2023/08/09 02:53:10;;;;;;;6.57;1.60;;;8.90;99.90;;;;;;5074340;28;20045;-26
2023/08/09 02:55:36;;;;;;;5.57;1.83;;;8.90;99.90;;;;;;5076284;28;20052;-25
2023/08/09 02:58:04;;;;;;;7.30;1.70;;;8.70;99.90;;;;;;5075672;28;20391;-25
2023/08/09 03:00:33;;;;;;;5.13;1.50;;;8.60;99.90;;;;;;5075399;28;20052;-25
2023/08/09 03:03:00;;;;;;;5.55;2.00;;;8.60;99.90;;;;;;5075266;28;20044;-25
2023/08/09 03:05:27;;;;;;;5.07;2.10;;;8.40;99.90;;;;;;5075214;28;20036;-25
2023/08/09 03:07:53;;;;;;;4.95;2.15;;;8.40;99.90;;;;;;5075526;28;20084;-26
2023/08/09 03:10:19;;;;;;;6.47;1.83;;;8.40;99.90;;;;;;5074892;28;20533;-26
2023/08/09 03:12:45;;;;;;;7.43;1.95;;;8.40;99.90;;;;;;5075310;28;20084;-26
2023/08/09 03:15:11;;;;;;;5.90;1.50;;;8.40;99.90;;;;;;5074431;28;20083;-25
2023/08/09 03:17:37;;;;;;;4.80;1.80;;;8.50;99.90;;;;;;5057345;28;20083;-25
2023/08/09 03:20:13;;;;;;;5.78;1.67;;;8.50;99.90;;;;;;5074936;28;20040;-26
2023/08/09 03:22:43;;;;;;;5.25;1.80;;;8.50;99.90;;;;;;5074845;28;20123;-25
2023/08/09 03:25:10;;;;;;;5.60;2.10;;;8.50;99.90;;;;;;5057191;28;20095;-26
2023/08/09 03:27:36;;;;;;;3.45;1.70;;;8.60;99.90;;;;;;5074797;28;20045;-25
2023/08/09 03:30:08;;;;;;;7.72;2.05;;;8.70;99.90;;;;;;5073565;28;20044;-25
2023/08/09 03:32:35;;;;;;;5.03;2.00;;;8.80;99.90;;;;;;5075183;28;20044;-24
2023/08/09 03:35:01;;;;;;;5.20;1.50;;;8.80;99.90;;;;;;5074910;28;20395;-26
2023/08/09 03:37:27;;;;;;;7.18;2.15;;;8.80;99.90;;;;;;5073425;28;20063;-26
2023/08/09 03:39:53;;;;;;;4.32;1.40;;;8.80;99.90;;;;;;5074229;28;20494;-25
2023/08/09 03:42:19;;;;;;;6.80;1.95;;;8.80;99.90;;;;;;5074079;28;20067;-24
2023/08/09 03:44:44;;;;;;;7.95;1.60;;;8.90;99.90;;;;;;5074750;28;20052;-25
2023/08/09 03:47:10;;;;;;;5.88;1.73;;;9.00;99.90;;;;;;5073321;28;20083;-25
2023/08/09 03:49:36;;;;;;;4.32;1.42;;;9.00;99.90;;;;;;5073415;28;20048;-25
2023/08/09 03:52:01;;;;;;;3.83;1.35;;;9.00;99.90;;;;;;5074856;28;20049;-25
2023/08/09 03:54:28;;;;;;;4.72;1.77;;;9.10;99.90;;;;;;5039804;28;20084;-25
2023/08/09 03:56:54;;;;;;;4.43;1.80;;;9.10;99.90;;;;;;5074290;28;20048;-25
2023/08/09 03:59:20;;;;;;;4.55;1.45;;;9.30;99.90;;;;;;5056528;28;20082;-25
2023/08/09 04:01:46;;;;;;;2.67;1.35;;;9.30;99.90;;;;;;5074094;28;20074;-25
2023/08/09 04:04:12;;;;;;;4.50;1.60;;;9.30;99.90;;;;;;5074155;28;20470;-26
2023/08/09 04:06:37;;;;;;;4.25;1.90;;;9.40;99.90;;;;;;5074075;28;20094;-25
2023/08/09 04:09:03;;;;;;;4.15;1.58;;;9.30;99.90;;;;;;5073718;28;20055;-25
2023/08/09 04:11:29;;;;;;;6.00;1.27;;;9.40;99.90;;;;;;5057038;28;20133;-26
2023/08/09 04:13:55;;;;;;;5.65;1.35;;;9.40;99.90;;;;;;5073961;28;20429;-25
2023/08/09 04:16:21;;;;;;;4.65;1.40;;;9.40;99.90;;;;;;5057184;28;20048;-25
2023/08/09 04:18:46;;;;;;;3.15;1.63;;;9.50;99.90;;;;;;5074491;28;20056;-25
2023/08/09 04:21:12;;;;;;;5.00;1.20;;;9.50;99.90;;;;;;5074190;28;20048;-25
2023/08/09 04:23:38;;;;;;;3.55;1.27;;;9.60;99.90;;;;;;5072590;28;20048;-25
2023/08/09 04:26:03;;;;;;;2.95;1.15;;;9.70;99.90;;;;;;5074123;28;20097;-26
2023/08/09 04:28:30;;;;;;;3.17;1.33;;;9.70;99.90;;;;;;5056130;28;20059;-25
2023/08/09 04:30:56;;;;;;;5.97;1.38;;;9.70;99.90;;;;;;5072824;28;20051;-26
2023/08/09 04:33:22;;;;;;;3.70;1.73;;;9.70;99.90;;;;;;5073686;28;20044;-26
2023/08/09 04:35:48;;;;;;;5.05;1.33;;;9.70;99.90;;;;;;5072606;28;20052;-25
2023/08/09 04:38:14;;;;;;;5.90;1.58;;;9.80;99.90;;;;;;5056320;28;20106;-25
2023/08/09 04:40:40;;;;;;;9.52;2.47;;;9.90;99.90;;;;;;5074016;28;20559;-26
2023/08/09 04:43:06;;;;;;;5.55;1.30;;;9.90;99.90;;;;;;5073958;28;20056;-25
2023/08/09 04:45:33;;;;;;;11.25;1.65;;;9.90;99.90;;;;;;5073582;28;20402;-25
2023/08/09 04:48:01;;;;;;;6.05;1.40;;;10.00;99.90;;;;;;5073638;28;20043;-25
2023/08/09 04:50:27;;;;;;;5.20;1.25;;;10.00;99.90;;;;;;5073394;28;20045;-25
2023/08/09 04:52:54;;;;;;;4.60;1.55;;;10.10;99.90;;;;;;5073451;28;20044;-26
2023/08/09 04:55:20;;;;;;;3.20;1.52;;;10.20;99.90;;;;;;5073378;28;20079;-26
2023/08/09 04:57:46;;;;;;;6.55;1.25;;;10.20;99.90;;;;;;5074002;28;20048;-26
2023/08/09 05:00:13;;;;;;;5.97;1.23;;;10.20;99.90;;;;;;5077673;28;20087;-26
2023/08/09 05:02:40;;;;;;;3.33;1.05;;;10.30;99.90;;;;;;5077554;28;20124;-26
2023/08/09 05:05:07;;;;;;;6.57;1.48;;;10.40;99.90;;;;;;5078330;28;20048;-26
2023/08/09 05:07:33;;;;;;;6.25;1.40;;;10.50;99.90;;;;;;5076299;28;20050;-25
2023/08/09 05:10:04;;;;;;;2.60;1.13;;;10.60;99.90;;;;;;5075977;28;20443;-27
2023/08/09 05:12:30;;;;;;;8.43;1.35;;;10.60;99.90;;;;;;5077290;28;20059;-25
2023/08/09 05:14:57;;;;;;;3.75;1.20;;;10.70;99.90;;;;;;5077353;28;20044;-26
2023/08/09 05:17:23;;;;;;;3.72;1.02;;;10.80;99.90;;;;;;5077835;28;20070;-26
2023/08/09 05:19:49;;;;;;;5.43;1.88;;;11.00;99.90;;;;;;5076930;28;20414;-26
2023/08/09 05:22:15;;;;;;;5.63;1.65;;;11.00;99.90;;;;;;5059410;28;20044;-26
2023/08/09 05:24:40;;;;;;;3.20;1.00;;;11.20;99.90;;;;;;5077156;28;20045;-25
2023/08/09 05:27:06;;;;;;;2.15;1.10;;;11.40;99.90;;;;;;5075938;28;20170;-26
2023/08/09 05:29:32;;;;;;;3.72;1.17;;;11.50;99.90;;;;;;5076346;28;20071;-26
2023/08/09 05:31:58;;;;;;;4.22;0.85;;;11.60;99.90;;;;;;5042633;28;20040;-26
2023/08/09 05:34:24;;;;;;;6.32;1.58;;;11.70;99.90;;;;;;5075719;28;20044;-26
2023/08/09 05:36:50;;;;;;;5.93;1.40;;;11.70;99.90;;;;;;5075766;28;20052;-26
2023/08/09 05:39:16;;;;;;;4.13;1.35;;;11.70;99.90;;;;;;5075898;28;20048;-26
2023/08/09 05:41:41;;;;;;;3.25;0.98;;;11.80;99.90;;;;;;5076531;28;20053;-26
2023/08/09 05:44:07;;;;;;;3.08;0.90;;;11.80;99.90;;;;;;5060005;28;20037;-26
2023/08/09 05:46:33;;;;;;;3.65;0.70;;;11.90;99.90;;;;;;5076363;28;20076;-26
2023/08/09 05:48:59;;;;;;;3.80;1.00;;;12.00;99.90;;;;;;5076406;28;20094;-26
2023/08/09 05:51:25;;;;;;;5.47;1.00;;;12.20;99.90;;;;;;5059601;28;20121;-25
2023/08/09 05:53:51;;;;;;;3.67;0.90;;;13.00;99.90;;;;;;5076603;28;20534;-25
2023/08/09 05:56:17;;;;;;;2.90;1.23;;;13.40;99.90;;;;;;5076562;28;20125;-26
2023/08/09 05:58:43;;;;;;;4.80;0.80;;;14.00;1.00;;;;;;5077086;28;20411;-26
2023/08/09 06:01:10;;;;;;;3.67;0.77;;;14.50;99.90;;;;;;5075544;28;20045;-26
2023/08/09 06:03:39;;;;;;;1.75;0.77;;;14.60;99.90;;;;;;5076946;28;20044;-26
2023/08/09 06:06:07;;;;;;;3.03;1.00;;;14.80;99.90;;;;;;5076375;28;20088;-26
2023/08/09 06:08:34;;;;;;;3.50;0.65;;;14.80;99.90;;;;;;5076974;28;20052;-26
2023/08/09 06:11:00;;;;;;;5.25;0.82;;;14.80;99.90;;;;;;5076423;28;20048;-25
2023/08/09 06:13:26;;;;;;;1.88;0.90;;;14.60;1.00;;;;;;5076263;28;20102;-26
2023/08/09 06:15:52;;;;;;;5.65;1.15;;;14.60;99.90;;;;;;5076235;28;20044;-26
2023/08/09 06:18:17;;;;;;;4.97;1.10;;;14.50;99.90;;;;;;5076200;28;20051;-26
2023/08/09 06:20:43;;;;;;;5.03;1.00;;;14.50;99.90;;;;;;5076153;28;20078;-26
2023/08/09 06:23:10;;;;;;;3.20;0.80;;;14.40;99.90;;;;;;5074580;28;20090;-26
2023/08/09 06:25:36;;;;;;;3.63;0.77;;;14.50;99.90;;;;;;5074649;28;20418;-27
2023/08/09 06:28:02;;;;;;;2.88;0.80;;;14.40;99.90;;;;;;5075131;28;20106;-26
2023/08/09 06:30:28;;;;;;;3.17;0.80;;;14.50;99.90;;;;;;5058140;28;20090;-26
2023/08/09 06:32:53;;;;;;;7.43;1.30;;;14.50;1.00;;;;;;5074898;28;20447;-26
2023/08/09 06:35:19;;;;;;;3.65;0.88;;;14.50;1.00;;;;;;5075242;28;20044;-26
2023/08/09 06:37:50;;;;;;;4.97;1.08;;;14.40;99.90;;;;;;5075816;28;20478;-26
2023/08/09 06:40:16;;;;;;;2.17;0.88;;;14.50;1.00;;;;;;5075817;28;20129;-26
2023/08/09 06:42:42;;;;;;;2.72;0.90;;;14.60;1.00;;;;;;5075741;28;20114;-26
2023/08/09 06:45:09;;;;;;;4.28;1.27;;;14.60;99.90;;;;;;5075658;28;20057;-26
2023/08/09 06:47:35;;;;;;;2.58;0.75;;;14.70;1.00;;;;;;5074392;28;20092;-26
2023/08/09 06:50:01;;;;;;;3.58;0.70;;;14.80;1.00;;;;;;5076072;28;20080;-26
2023/08/09 06:52:27;;;;;;;2.28;0.80;;;14.90;99.90;;;;;;5075566;28;20049;-26
2023/08/09 06:54:53;;;;;;;1.77;0.70;;;14.90;99.90;;;;;;5075758;28;20068;-26
2023/08/09 06:57:19;;;;;;;5.07;1.52;;;15.00;99.90;;;;;;5074470;28;20066;-26
2023/08/09 06:59:45;;;;;;;6.55;1.55;;;15.10;99.90;;;;;;5076199;28;20525;-26
2023/08/09 07:02:11;;;;;;;2.78;0.80;;;15.20;99.90;;;;;;5074248;28;20132;-26
2023/08/09 07:04:36;;;;;;;2.63;1.17;;;15.30;99.90;;;;;;5074110;28;20131;-26
2023/08/09 07:07:03;;;;;;;2.35;0.75;;;15.30;99.90;;;;;;5075259;28;20045;-26
2023/08/09 07:09:29;;;;;;;5.53;0.98;;;15.50;99.90;;;;;;5075265;28;20051;-26
2023/08/09 07:11:55;;;;;;;6.00;0.90;;;15.50;99.90;;;;;;5075107;28;20041;-27
2023/08/09 07:14:20;;;;;;;3.35;0.70;;;15.60;99.90;;;;;;5075919;28;20046;-26
2023/08/09 07:16:46;;;;;;;1.40;0.63;;;15.70;99.90;;;;;;5075324;28;20584;-26
2023/08/09 07:19:12;;;;;;;3.33;1.02;;;15.70;99.90;;;;;;5075012;28;20390;-27
2023/08/09 07:21:37;;;;;;;2.28;0.90;;;15.70;99.90;;;;;;5056723;28;20055;-26
2023/08/09 07:24:03;;;;;;;2.38;0.88;;;15.80;99.90;;;;;;5074847;28;20506;-27
2023/08/09 07:26:29;;;;;;;7.80;0.95;;;15.90;99.90;;;;;;5073681;28;20086;-26
2023/08/09 07:28:55;;;;;;;2.85;1.13;;;16.00;99.90;;;;;;5074808;28;20063;-26
2023/08/09 07:31:22;;;;;;;4.82;0.93;;;16.10;13.20;;;;;;5074049;28;20040;-27
2023/08/09 07:33:49;;;;;;;2.08;1.00;;;16.20;1.00;;;;;;5073391;28;20506;-27
2023/08/09 07:36:15;;;;;;;4.00;0.73;;;16.20;99.90;;;;;;5073469;28;20052;-26
2023/08/09 07:38:41;;;;;;;5.22;0.90;;;16.20;1.00;;;;;;5075395;28;20044;-28
2023/08/09 07:41:07;;;;;;;2.63;0.68;;;16.40;1.00;;;;;;5075370;28;20387;-27
2023/08/09 07:43:33;;;;;;;3.30;0.50;;;16.50;1.00;;;;;;5074377;28;20048;-26
2023/08/09 07:45:59;;;;;;;4.35;0.63;;;16.70;99.90;;;;;;5074455;28;20041;-27
2023/08/09 07:48:25;;;;;;;3.85;0.55;;;16.80;99.90;;;;;;5074985;28;20128;-26
2023/08/09 07:50:51;;;;;;;3.20;0.73;;;16.90;99.90;;;;;;5074419;28;20102;-26
2023/08/09 07:53:17;;;;;;;4.55;0.80;;;17.00;99.90;;;;;;5074374;28;20045;-27
2023/08/09 07:55:42;;;;;;;1.35;0.50;;;17.00;95.80;;;;;;5073104;28;20394;-26
2023/08/09 07:58:09;;;;;;;5.75;0.82;;;17.00;1.00;;;;;;5074306;28;20048;-26
2023/08/09 08:00:35;;;;;;;3.38;0.77;;;17.00;99.90;;;;;;5074239;28;20145;-26
2023/08/09 08:03:01;;;;;;;5.13;0.73;;;17.10;1.00;;;;;;5056345;28;20582;-26
2023/08/09 08:05:26;;;;;;;2.17;0.68;;;17.00;99.90;;;;;;5074140;28;20036;-26
2023/08/09 08:07:52;;;;;;;1.92;0.50;;;17.20;1.00;;;;;;5074069;28;20113;-27
2023/08/09 08:10:18;;;;;;;3.75;0.60;;;17.20;1.00;;;;;;5056755;28;20376;-27
2023/08/09 08:12:46;;;;;;;2.70;1.02;;;17.30;99.90;;;;;;5073683;28;20182;-28
2023/08/09 08:15:12;;;;;;;3.67;0.50;;;17.40;99.90;;;;;;5056152;28;20048;-27
2023/08/09 08:17:38;;;;;;;2.47;0.55;;;17.60;70.10;;;;;;5073840;28;20048;-27
2023/08/09 08:20:15;;;;;;;4.70;0.80;;;17.70;99.90;;;;;;5074394;28;20058;-27
2023/08/09 08:22:44;;;;;;;2.05;0.52;;;17.70;1.00;;;;;;5073928;28;20040;-27
2023/08/09 08:25:12;;;;;;;5.97;1.25;;;17.60;69.70;;;;;;5055970;28;20051;-27
2023/08/09 08:27:40;;;;;;;2.70;0.65;;;17.40;1.00;;;;;;5072884;28;20122;-27
2023/08/09 08:30:08;;;;;;;3.22;0.77;;;17.20;1.00;;;;;;5056316;28;20478;-27
2023/08/09 08:32:35;;;;;;;2.50;0.50;;;17.50;97.80;;;;;;5072738;28;20062;-25
2023/08/09 08:35:02;;;;;;;3.65;0.75;;;17.40;1.00;;;;;;5074359;28;20051;-26
2023/08/09 08:37:28;;;;;;;4.00;0.70;;;17.30;1.00;;;;;;5072485;28;20563;-26
2023/08/09 08:39:55;;;;;;;6.13;0.85;;;17.40;1.00;;;;;;5073715;28;20059;-27
2023/08/09 08:42:20;;;;;;;2.50;0.40;;;17.60;99.90;;;;;;5073670;28;20110;-27
2023/08/09 08:44:48;;;;;;;2.17;0.32;;;18.00;99.90;;;;;;5056353;28;20045;-26
2023/08/09 08:47:14;;;;;;;1.08;0.30;;;18.10;20.60;;;;;;5073624;28;20056;-27
2023/08/09 08:49:44;;;;;;;4.22;1.13;;;17.90;92.70;;;;;;5056762;28;20131;-27
2023/08/09 08:52:13;;;;;;;3.55;0.52;;;17.90;99.90;;;;;;5073629;28;20111;-27
2023/08/09 08:54:40;;;;;;;1.65;0.52;;;17.90;1.00;;;;;;5073518;28;20047;-27
2023/08/09 08:57:07;;;;;;;3.97;0.40;;;17.70;1.00;;;;;;5074087;28;20056;-27
2023/08/09 08:59:34;;;;;;;2.63;0.35;;;17.80;1.00;;;;;;5073538;28;20049;-27
2023/08/09 09:02:02;;;;;;;4.38;0.73;;;17.70;1.00;;;;;;5055659;28;20075;-27
2023/08/09 09:04:28;;;;;;;2.45;0.43;;;17.70;99.90;;;;;;5055761;28;20056;-27
2023/08/09 09:06:55;;;;;;;3.53;0.75;;;18.30;1.00;;;;;;5039259;28;20109;-27
2023/08/09 09:09:20;;;;;;;2.40;0.32;;;18.70;1.00;;;;;;5056084;28;20180;-26
2023/08/09 09:11:46;;;;;;;1.90;0.30;;;18.20;36.10;;;;;;5073391;28;20569;-26
2023/08/09 09:14:14;;;;;;;2.75;0.50;;;17.70;1.00;;;;;;5073383;28;20094;-26
2023/08/09 09:16:41;;;;;;;5.60;1.17;;;17.40;1.00;;;;;;5073910;28;20055;-26
2023/08/09 09:19:06;;;;;;;3.85;0.70;;;17.20;99.90;;;;;;5073328;28;20050;-26
2023/08/09 09:21:34;;;;;;;2.97;0.57;;;17.70;1.00;;;;;;5073203;28;20391;-27
2023/08/09 09:24:09;;;;;;;4.18;0.88;;;18.10;1.00;;;;;;5073045;28;20558;-27
2023/08/09 09:26:37;;;;;;;1.95;0.43;;;18.20;99.90;;;;;;5073241;28;20131;-27
2023/08/09 09:29:09;;;;;;;2.70;0.50;;;19.10;1.00;;;;;;5072508;28;20048;-27
2023/08/09 09:31:39;;;;;;;1.80;0.57;;;18.70;99.90;;;;;;5073323;28;20087;-27
2023/08/09 09:34:09;;;;;;;1.48;0.52;;;18.20;1.00;;;;;;5073879;28;20052;-27
2023/08/09 09:36:50;;;;;;;2.15;1.08;;;17.80;1.00;;;;;;5073158;28;20099;-27
2023/08/09 09:39:15;;;;;;;1.33;0.40;;;17.50;1.00;;;;;;5072285;28;20081;-27
2023/08/09 09:41:50;;;;;;;2.80;0.52;;;17.70;99.90;;;;;;5072791;28;20052;-25
2023/08/09 09:44:23;;;;;;;1.70;0.55;;;18.90;99.90;;;;;;5071796;28;20092;-27
2023/08/09 09:46:58;;;;;;;5.15;1.45;;;18.90;50.50;;;;;;5058835;28;20050;-26
2023/08/09 09:49:24;;;;;;;3.90;0.70;;;18.40;99.90;;;;;;5076801;28;20139;-28
2023/08/09 09:51:53;;;;;;;5.53;0.82;;;17.90;1.00;;;;;;5076749;28;20088;-27
2023/08/09 09:54:19;;;;;;;4.03;0.85;;;18.80;99.90;;;;;;5077200;28;20097;-26
2023/08/09 09:56:45;;;;;;;1.42;0.63;;;19.50;99.90;;;;;;5077431;28;20040;-27
2023/08/09 09:59:12;;;;;;;2.08;0.38;;;19.50;99.90;;;;;;5076547;28;20044;-27
2023/08/09 10:01:41;;;;;;;1.55;0.65;;;19.30;34.60;;;;;;5076418;28;20127;-27
2023/08/09 10:04:11;;;;;;;1.73;0.50;;;19.20;1.00;;;;;;5076057;28;20416;-27
2023/08/09 10:06:42;;;;;;;2.15;0.63;;;19.40;99.90;;;;;;5076397;28;20051;-29
2023/08/09 10:09:10;;;;;;;1.38;0.60;;;20.30;1.00;;;;;;5076412;28;20174;-27
2023/08/09 10:11:36;;;;;;;1.70;0.52;;;20.90;1.00;;;;;;5041777;28;20131;-27
2023/08/09 10:14:05;;;;;;;1.42;0.35;;;20.30;1.00;;;;;;5077078;28;20101;-27
2023/08/09 10:16:32;;;;;;;2.47;0.60;;;19.30;99.90;;;;;;5074992;28;20040;-27
2023/08/09 10:19:22;;;;;;;3.40;0.73;;;19.10;83.90;;;;;;5075210;28;20051;-27
2023/08/09 10:21:50;;;;;;;1.63;0.60;;;18.70;4.80;;;;;;5076223;28;20070;-28
2023/08/09 10:24:18;;;;;;;2.67;0.80;;;19.40;99.90;;;;;;5075417;28;20079;-28
2023/08/09 10:26:49;;;;;;;3.20;0.60;;;20.10;29.80;;;;;;5076298;28;20063;-28
2023/08/09 10:29:23;;;;;;;1.05;0.38;;;19.80;1.00;;;;;;5076098;28;20070;-28
2023/08/09 10:31:59;;;;;;;3.58;0.65;;;19.30;99.90;;;;;;5076002;28;20094;-28
2023/08/09 10:34:42;;;;;;;3.13;0.40;;;19.10;1.00;;;;;;5076682;28;20417;-27
2023/08/09 10:37:10;;;;;;;3.58;0.65;;;19.10;99.90;;;;;;5075213;28;20091;-27
2023/08/09 10:39:36;;;;;;;1.58;0.63;;;18.70;99.90;;;;;;5075819;28;20047;-26
2023/08/09 10:42:09;;;;;;;1.45;0.47;;;19.30;12.30;;;;;;5074679;28;20055;-27
2023/08/09 10:44:36;;;;;;;1.13;0.43;;;20.10;99.90;;;;;;5076561;28;20139;-28
2023/08/09 10:47:13;;;;;;;1.10;0.30;;;20.40;99.90;;;;;;5075667;28;20048;-27
2023/08/09 10:49:48;;;;;;;3.08;0.40;;;20.00;99.90;;;;;;5075098;28;20068;-28
2023/08/09 10:52:18;;;;;;;1.70;0.73;;;19.50;1.00;;;;;;5076190;28;20051;-27
2023/08/09 10:54:46;;;;;;;1.48;0.63;;;20.20;1.00;;;;;;5075543;28;20044;-28
2023/08/09 10:57:13;;;;;;;2.28;0.60;;;19.70;99.90;;;;;;5075258;28;20490;-27
2023/08/09 10:59:41;;;;;;;2.17;0.60;;;19.10;99.90;;;;;;5075436;28;20041;-27
2023/08/09 11:02:07;;;;;;;3.42;0.50;;;18.60;1.00;;;;;;5075799;28;20466;-27
2023/08/09 11:04:34;;;;;;;3.92;1.08;;;19.10;99.90;;;;;;5074135;28;20044;-27
2023/08/09 11:07:00;;;;;;;2.38;0.47;;;20.00;1.00;;;;;;5074091;28;20055;-28
2023/08/09 11:09:32;;;;;;;1.33;0.40;;;19.90;1.00;;;;;;5075293;28;20059;-27
2023/08/09 11:11:59;;;;;;;3.40;0.95;;;19.40;99.90;;;;;;5074252;28;20474;-27
2023/08/09 11:14:25;;;;;;;4.03;0.90;;;19.20;8.60;;;;;;5057338;28;20052;-27
2023/08/09 11:16:51;;;;;;;1.38;0.40;;;18.90;1.00;;;;;;5075311;28;20041;-27
2023/08/09 11:19:21;;;;;;;3.33;0.82;;;18.80;99.90;;;;;;5074043;28;20044;-27
2023/08/09 11:21:53;;;;;;;2.15;0.55;;;18.70;1.00;;;;;;5074884;28;20045;-27
2023/08/09 11:24:21;;;;;;;1.65;0.40;;;18.50;99.90;;;;;;5074885;28;20127;-28
2023/08/09 11:26:58;;;;;;;3.03;0.60;;;18.30;99.90;;;;;;5073975;28;20394;-28
2023/08/09 11:29:26;;;;;;;3.30;0.95;;;18.10;99.90;;;;;;5074741;28;20049;-27
2023/08/09 11:31:54;;;;;;;1.15;0.80;;;18.10;99.90;;;;;;5057184;28;20048;-27
2023/08/09 11:34:21;;;;;;;4.00;0.70;;;18.30;67.40;;;;;;5073680;28;20100;-27
2023/08/09 11:36:49;;;;;;;4.35;0.75;;;18.70;92.10;;;;;;5057048;28;20549;-27
2023/08/09 11:39:15;;;;;;;2.58;0.70;;;18.80;1.00;;;;;;5074655;28;20080;-28
2023/08/09 11:41:42;;;;;;;2.13;0.47;;;18.60;1.00;;;;;;5074469;28;20482;-27
2023/08/09 11:44:08;;;;;;;1.98;0.77;;;18.20;1.00;;;;;;5074289;28;20096;-28
2023/08/09 11:46:37;;;;;;;2.60;0.80;;;18.00;1.00;;;;;;5075268;28;20393;-27
2023/08/09 11:49:04;;;;;;;2.75;0.70;;;18.00;49.20;;;;;;5056671;28;20384;-28
2023/08/09 11:51:33;;;;;;;1.90;0.52;;;18.20;1.00;;;;;;5074070;28;20540;-27
2023/08/09 11:54:00;;;;;;;5.38;0.70;;;18.10;66.50;;;;;;5075121;28;20048;-26
2023/08/09 11:56:31;;;;;;;0.88;0.60;;;17.90;99.90;;;;;;5075144;28;20127;-28
2023/08/09 11:58:59;;;;;;;2.35;1.02;;;17.90;99.90;;;;;;5074334;28;20055;-27
2023/08/09 12:01:31;;;;;;;1.02;0.40;;;17.90;99.90;;;;;;5074195;28;20048;-27
2023/08/09 12:03:59;;;;;;;1.98;0.70;;;18.50;1.00;;;;;;5074641;28;20036;-27
2023/08/09 12:06:40;;;;;;;2.28;0.60;;;19.10;99.90;;;;;;5074124;28;20040;-27
2023/08/09 12:09:31;;;;;;;5.10;0.77;;;18.40;99.90;;;;;;5073502;28;20045;-27
2023/08/09 12:12:16;;;;;;;2.00;0.60;;;17.90;1.00;;;;;;5074039;28;20044;-28
2023/08/09 12:14:46;;;;;;;0.68;0.43;;;17.60;99.90;;;;;;5041068;28;20398;-28
2023/08/09 12:17:22;;;;;;;1.33;0.45;;;17.50;99.90;;;;;;5056335;28;20044;-29
2023/08/09 12:19:48;;;;;;;2.60;0.50;;;17.80;99.90;;;;;;5072691;28;20079;-27
2023/08/09 12:22:14;;;;;;;2.30;0.65;;;18.80;99.90;;;;;;5073878;28;20088;-28
2023/08/09 12:24:40;;;;;;;1.83;0.38;;;19.90;1.00;;;;;;5072669;28;20052;-27
2023/08/09 12:27:06;;;;;;;3.83;0.60;;;20.30;99.90;;;;;;5073817;28;20051;-27
2023/08/09 12:29:36;;;;;;;1.33;0.30;;;20.10;99.90;;;;;;5072855;28;20040;-28
2023/08/09 12:32:03;;;;;;;2.20;0.50;;;19.50;99.90;;;;;;5073819;28;20033;-28
2023/08/09 12:34:30;;;;;;;2.85;0.93;;;19.90;99.90;;;;;;5072412;28;20060;-28
2023/08/09 12:36:56;;;;;;;2.15;0.70;;;19.50;99.90;;;;;;5073756;28;20437;-29
2023/08/09 12:39:22;;;;;;;2.97;0.60;;;19.70;99.90;;;;;;5074007;28;20049;-27
2023/08/09 12:41:48;;;;;;;1.88;0.60;;;20.00;99.90;;;;;;5038901;28;20044;-27
2023/08/09 12:44:14;;;;;;;5.30;0.73;;;20.40;99.90;;;;;;5073989;28;20060;-27
2023/08/09 12:46:40;;;;;;;1.75;0.32;;;20.70;99.90;;;;;;5072367;28;20048;-27
2023/08/09 12:49:06;;;;;;;2.03;0.55;;;20.70;99.90;;;;;;5039329;28;20571;-27
2023/08/09 12:51:32;;;;;;;2.38;0.70;;;20.70;99.90;;;;;;5073616;28;20152;-28
2023/08/09 12:53:57;;;;;;;4.28;1.23;;;20.90;99.90;;;;;;5072332;28;20048;-27